Time;durP1;ratioP1;P1;durP2;ratioP2;P2;SDS_P1;SDS_P2;PMS_P1;PMS_P2;Temp;Humidity;BMP_temperature;BMP_pressure;BME280_temperature;BME280_humidity;BME280_pressure;Samples;Min_cycle;Max_cycle;Signal;HPM_P1;HPM_P2
2022/06/02 00:00:11;;;;;;;6.68;3.42;;;;;;;;;;4992493;28;97055;-73
2022/06/02 00:02:51;;;;;;;6.17;3.27;;;;;;;;;;4992162;28;97210;-72
2022/06/02 00:05:23;;;;;;;7.03;3.35;;;;;;;;;;4995607;28;95295;-72
2022/06/02 00:08:08;;;;;;;7.60;3.70;;;;;;;;;;4980068;28;97725;-73
2022/06/02 00:10:41;;;;;;;5.05;3.17;;;;;;;;;;4992504;28;95076;-73
2022/06/02 00:13:13;;;;;;;5.35;3.25;;;;;;;;;;4992434;28;97015;-74
2022/06/02 00:15:39;;;;;;;;;;;;;;;;;;4990385;28;97404;-71
2022/06/02 00:18:16;;;;;;;5.70;2.95;;;;;;;;;;4991565;28;116642;-71
2022/06/02 00:20:50;;;;;;;4.80;3.08;;;;;;;;;;4988829;28;96838;-71
2022/06/02 00:23:21;;;;;;;5.43;3.20;;;;;;;;;;4991847;28;97412;-71
2022/06/02 00:25:51;;;;;;;9.20;4.20;;;;;;;;;;4975865;28;95540;-71
2022/06/02 00:28:26;;;;;;;6.90;3.90;;;;;;;;;;4974770;28;96122;-71
2022/06/02 00:31:05;;;;;;;5.85;3.38;;;;;;;;;;4991933;28;95346;-73
2022/06/02 00:33:34;;;;;;;6.28;3.60;;;;;;;;;;4972279;28;95420;-71
2022/06/02 00:36:05;;;;;;;6.35;3.40;;;;;;;;;;4970447;28;100183;-72
2022/06/02 00:38:35;;;;;;;6.78;4.07;;;;;;;;;;4972233;28;95330;-71
2022/06/02 00:41:10;;;;;;;6.05;3.63;;;;;;;;;;4972798;28;96749;-71
2022/06/02 00:43:51;;;;;;;6.47;4.38;;;;;;;;;;4970951;28;97291;-71
2022/06/02 00:46:38;;;;;;;7.82;4.45;;;;;;;;;;4988609;28;95347;-72
2022/06/02 00:49:10;;;;;;;6.25;4.03;;;;;;;;;;4994331;28;97201;-73
2022/06/02 00:51:52;;;;;;;5.80;3.75;;;;;;;;;;4994771;28;95460;-72
2022/06/02 01:00:00;;;;;;;8.80;4.40;;;;;;;;;;4982291;28;95321;-76
2022/06/02 01:02:33;;;;;;;10.48;4.57;;;;;;;;;;4993827;28;96777;-75
2022/06/02 01:05:00;;;;;;;6.32;3.92;;;;;;;;;;4995221;28;95187;-76
2022/06/02 01:07:41;;;;;;;6.97;4.20;;;;;;;;;;4995106;28;95188;-74
2022/06/02 01:10:11;;;;;;;8.32;4.88;;;;;;;;;;4994724;28;96886;-76
2022/06/02 01:12:43;;;;;;;9.73;3.95;;;;;;;;;;4997918;28;96874;-75
2022/06/02 01:15:10;;;;;;;;;;;;;;;;;;4987039;28;96870;-77
2022/06/02 01:17:55;;;;;;;6.13;3.95;;;;;;;;;;4985959;28;127202;-75
2022/06/02 01:20:34;;;;;;;7.85;4.53;;;;;;;;;;4994256;28;95439;-75
2022/06/02 01:23:07;;;;;;;7.80;4.50;;;;;;;;;;4991158;28;96893;-72
2022/06/02 01:25:36;;;;;;;6.07;4.07;;;;;;;;;;4993620;28;97368;-73
2022/06/02 01:28:02;;;;;;;8.60;4.75;;;;;;;;;;4994934;28;95386;-76
2022/06/02 01:30:44;;;;;;;8.38;4.68;;;;;;;;;;4993265;28;95759;-76
2022/06/02 01:33:16;;;;;;;6.90;4.68;;;;;;;;;;4985194;28;97424;-74
2022/06/02 01:35:49;;;;;;;8.63;5.18;;;;;;;;;;4998149;28;95343;-75
2022/06/02 01:38:22;;;;;;;8.00;4.85;;;;;;;;;;4991850;28;97445;-73
2022/06/02 01:41:00;;;;;;;8.40;4.45;;;;;;;;;;4993459;28;95158;-74
2022/06/02 01:43:49;;;;;;;9.32;4.95;;;;;;;;;;4994421;28;95576;-75
2022/06/02 01:46:27;;;;;;;7.35;4.45;;;;;;;;;;4992015;28;96317;-74
2022/06/02 01:49:03;;;;;;;6.93;4.50;;;;;;;;;;4992287;28;95390;-76
2022/06/02 01:51:45;;;;;;;6.50;4.22;;;;;;;;;;4993618;28;97061;-76
2022/06/02 01:54:32;;;;;;;6.13;3.50;;;;;;;;;;4994419;28;97312;-74
2022/06/02 01:57:04;;;;;;;7.45;3.72;;;;;;;;;;4994646;28;95201;-74
2022/06/02 01:59:57;;;;;;;10.65;4.00;;;;;;;;;;4995542;28;97055;-75
2022/06/02 02:02:33;;;;;;;6.82;3.70;;;;;;;;;;4992939;28;95383;-72
2022/06/02 02:05:18;;;;;;;6.00;3.63;;;;;;;;;;4994167;28;97086;-71
2022/06/02 02:07:54;;;;;;;7.05;4.22;;;;;;;;;;4993095;28;97306;-71
2022/06/02 02:10:24;;;;;;;6.18;3.60;;;;;;;;;;4993792;28;95363;-71
2022/06/02 02:13:29;;;;;;;6.03;4.15;;;;;;;;;;4993408;28;96967;-72
2022/06/02 02:16:04;;;;;;;6.32;3.60;;;;;;;;;;4993660;28;97059;-72
2022/06/02 02:18:31;;;;;;;8.20;3.90;;;;;;;;;;4993409;28;96555;-72
2022/06/02 02:21:13;;;;;;;6.43;4.32;;;;;;;;;;4988694;28;96812;-71
2022/06/02 02:23:44;;;;;;;8.23;4.25;;;;;;;;;;4991104;28;97443;-72
2022/06/02 02:26:13;;;;;;;6.32;4.03;;;;;;;;;;4994428;28;95789;-72
2022/06/02 02:28:52;;;;;;;7.95;4.32;;;;;;;;;;4992662;28;97386;-72
2022/06/02 02:31:23;;;;;;;6.30;3.75;;;;;;;;;;4993474;28;95583;-72
2022/06/02 02:33:54;;;;;;;8.65;4.15;;;;;;;;;;4993578;28;96530;-72
2022/06/02 02:36:39;;;;;;;6.30;3.85;;;;;;;;;;4993126;28;96148;-72
2022/06/02 02:39:14;;;;;;;6.43;3.70;;;;;;;;;;4993847;28;95089;-71
2022/06/02 02:41:41;;;;;;;7.10;4.20;;;;;;;;;;4992374;28;97581;-71
2022/06/02 02:44:19;;;;;;;6.85;3.75;;;;;;;;;;4996630;28;97252;-72
2022/06/02 02:46:53;;;;;;;7.45;4.25;;;;;;;;;;4992797;28;96634;-71
2022/06/02 02:49:33;;;;;;;7.00;3.65;;;;;;;;;;4992591;28;97243;-71
2022/06/02 02:52:15;;;;;;;6.97;3.78;;;;;;;;;;4994116;28;95199;-72
2022/06/02 02:54:44;;;;;;;6.60;3.77;;;;;;;;;;4993236;28;96744;-72
2022/06/02 02:57:29;;;;;;;6.53;3.53;;;;;;;;;;4985777;28;97334;-72
2022/06/02 03:00:09;;;;;;;6.65;3.80;;;;;;;;;;4973280;28;95329;-72
2022/06/02 03:02:54;;;;;;;5.40;3.33;;;;;;;;;;4972123;28;95629;-73
2022/06/02 03:05:20;;;;;;;4.35;3.03;;;;;;;;;;4971935;28;97525;-72
2022/06/02 03:07:46;;;;;;;5.50;3.45;;;;;;;;;;4975610;28;95289;-74
2022/06/02 03:10:20;;;;;;;6.45;3.42;;;;;;;;;;4991539;28;97274;-73
2022/06/02 03:12:49;;;;;;;6.75;3.92;;;;;;;;;;4992699;28;95310;-73
2022/06/02 03:15:21;;;;;;;8.02;3.38;;;;;;;;;;4977844;28;95427;-73
2022/06/02 03:17:48;;;;;;;;;;;;;;;;;;4993419;28;96304;-73
2022/06/02 03:20:17;;;;;;;4.68;3.22;;;;;;;;;;4992113;28;118780;-72
2022/06/02 03:23:13;;;;;;;4.88;3.20;;;;;;;;;;4993411;28;95961;-72
2022/06/02 03:25:45;;;;;;;7.05;4.07;;;;;;;;;;4986423;28;95892;-72
2022/06/02 03:28:12;;;;;;;6.70;3.50;;;;;;;;;;4990502;28;95237;-73
2022/06/02 03:30:42;;;;;;;6.40;4.07;;;;;;;;;;4977250;28;97382;-74
2022/06/02 03:33:16;;;;;;;6.05;3.78;;;;;;;;;;4993235;28;95349;-72
2022/06/02 03:35:54;;;;;;;7.30;4.40;;;;;;;;;;4992881;28;96552;-72
2022/06/02 03:38:37;;;;;;;6.70;4.05;;;;;;;;;;4992065;28;97740;-72
2022/06/02 03:41:03;;;;;;;;;;;;;;;;;;4990321;28;95418;-72
2022/06/02 03:43:38;;;;;;;6.05;3.80;;;;;;;;;;4991059;28;126309;-72
2022/06/02 03:46:10;;;;;;;8.20;4.68;;;;;;;;;;4992322;28;97541;-72
2022/06/02 03:48:40;;;;;;;9.20;4.55;;;;;;;;;;4991594;28;95296;-72
2022/06/02 03:51:12;;;;;;;9.30;4.50;;;;;;;;;;4992321;28;97127;-73
2022/06/02 03:53:51;;;;;;;7.43;4.63;;;;;;;;;;4995079;28;97766;-73
2022/06/02 03:56:36;;;;;;;8.23;4.22;;;;;;;;;;4991047;28;96824;-72
2022/06/02 03:59:21;;;;;;;6.88;4.32;;;;;;;;;;4991846;28;97315;-72
2022/06/02 04:01:56;;;;;;;6.75;4.05;;;;;;;;;;4992868;28;95244;-72
2022/06/02 04:04:44;;;;;;;8.00;4.43;;;;;;;;;;4991235;28;97064;-73
2022/06/02 04:07:13;;;;;;;5.45;3.75;;;;;;;;;;4990515;28;97493;-73
2022/06/02 04:09:58;;;;;;;7.45;4.20;;;;;;;;;;4992161;28;95362;-72
2022/06/02 04:15:40;;;;;;;6.05;3.38;;;;;;;;;;4991749;28;97341;-74
2022/06/02 04:18:33;;;;;;;8.65;3.90;;;;;;;;;;4995343;28;95238;-75
2022/06/02 04:20:59;;;;;;;;;;;;;;;;;;4967196;28;97488;-76
2022/06/02 04:23:31;;;;;;;7.10;3.95;;;;;;;;;;4973022;28;119857;-75
2022/06/02 04:26:06;;;;;;;6.53;4.15;;;;;;;;;;4990021;28;95576;-76
2022/06/02 04:28:32;;;;;;;6.97;4.03;;;;;;;;;;4994886;28;96281;-75
2022/06/02 04:31:18;;;;;;;7.22;4.53;;;;;;;;;;4989190;28;95396;-73
2022/06/02 04:33:55;;;;;;;6.47;3.85;;;;;;;;;;4994091;28;96870;-76
2022/06/02 04:36:36;;;;;;;8.68;4.32;;;;;;;;;;4993345;28;96245;-76
2022/06/02 04:39:18;;;;;;;7.93;4.40;;;;;;;;;;4994806;28;95254;-76
2022/06/02 04:41:53;;;;;;;8.63;5.05;;;;;;;;;;4998109;28;98453;-73
2022/06/02 19:44:07;;;;;;;1.73;1.40;;;;;;;;;;5049283;27;1306648;-73
2022/06/02 19:46:38;;;;;;;2.45;1.50;;;;;;;;;;5078255;27;97909;-73
2022/06/02 19:49:20;;;;;;;1.90;1.42;;;;;;;;;;5093970;27;96553;-72
2022/06/02 19:51:49;;;;;;;2.08;1.55;;;;;;;;;;5092223;27;96221;-73
2022/06/02 19:54:18;;;;;;;6.03;1.73;;;;;;;;;;5087445;27;97328;-73
2022/06/02 19:56:51;;;;;;;2.17;1.40;;;;;;;;;;5088277;27;96467;-73
2022/06/02 19:59:21;;;;;;;3.28;1.75;;;;;;;;;;5089526;27;97288;-72
2022/06/02 20:01:48;;;;;;;2.55;1.70;;;;;;;;;;5086783;27;97332;-74
2022/06/02 20:04:24;;;;;;;2.13;1.50;;;;;;;;;;5091838;27;95425;-72
2022/06/02 20:07:00;;;;;;;2.53;1.45;;;;;;;;;;5086756;27;97886;-75
2022/06/02 20:09:26;;;;;;;2.17;1.70;;;;;;;;;;5089969;27;95326;-73
2022/06/02 20:12:19;;;;;;;3.30;1.63;;;;;;;;;;5090593;27;97005;-74
2022/06/02 20:15:02;;;;;;;2.85;1.75;;;;;;;;;;5087229;27;96533;-73
2022/06/02 20:17:36;;;;;;;3.65;2.00;;;;;;;;;;5089394;27;95467;-75
2022/06/02 20:20:18;;;;;;;2.55;1.83;;;;;;;;;;5088296;27;97213;-73
2022/06/02 20:22:53;;;;;;;4.20;2.13;;;;;;;;;;5090202;27;98770;-71
2022/06/02 20:25:37;;;;;;;2.75;1.75;;;;;;;;;;5090371;27;96621;-71
2022/06/02 20:28:25;;;;;;;2.40;1.50;;;;;;;;;;5093869;27;95207;-71
2022/06/02 20:31:04;;;;;;;3.63;1.98;;;;;;;;;;5088278;27;95347;-71
2022/06/02 20:34:00;;;;;;;2.60;1.80;;;;;;;;;;5089180;27;97073;-73
2022/06/02 20:36:41;;;;;;;3.85;2.00;;;;;;;;;;5073982;27;97716;-74
2022/06/02 20:39:23;;;;;;;2.35;1.70;;;;;;;;;;5088868;27;95155;-74
2022/06/02 20:42:12;;;;;;;2.72;1.92;;;;;;;;;;5090191;27;96754;-74
2022/06/02 20:44:48;;;;;;;3.05;1.83;;;;;;;;;;5065632;27;97311;-73
2022/06/02 20:47:24;;;;;;;2.80;1.92;;;;;;;;;;5089725;27;95351;-73
2022/06/02 20:50:02;;;;;;;4.13;2.10;;;;;;;;;;5081473;27;96841;-73
2022/06/02 20:52:48;;;;;;;3.60;2.00;;;;;;;;;;5090625;27;97171;-72
2022/06/02 20:55:15;;;;;;;2.83;1.90;;;;;;;;;;5061372;27;96258;-73
2022/06/02 20:58:12;;;;;;;3.92;1.92;;;;;;;;;;5076366;27;96099;-75
2022/06/02 21:00:49;;;;;;;2.78;1.88;;;;;;;;;;5040449;27;95311;-75
2022/06/02 21:03:26;;;;;;;2.83;2.03;;;;;;;;;;5074983;27;97109;-74
2022/06/02 21:05:56;;;;;;;2.83;1.92;;;;;;;;;;5075542;27;96055;-75
2022/06/02 21:08:29;;;;;;;3.38;2.10;;;;;;;;;;5075679;27;95394;-75
2022/06/02 21:11:11;;;;;;;5.43;2.50;;;;;;;;;;5076228;27;96798;-74
2022/06/02 21:13:38;;;;;;;;;;;;;;;;;;5073992;27;97136;-74
2022/06/02 21:16:22;;;;;;;2.92;2.10;;;;;;;;;;5077858;27;117325;-75
2022/06/02 21:18:57;;;;;;;3.58;2.15;;;;;;;;;;5073996;27;97436;-75
2022/06/02 21:21:27;;;;;;;3.00;2.10;;;;;;;;;;5075007;27;95222;-76
2022/06/02 21:24:00;;;;;;;5.38;2.33;;;;;;;;;;5074997;27;96716;-75
2022/06/02 21:26:38;;;;;;;3.67;2.33;;;;;;;;;;5074126;27;97363;-75
2022/06/02 21:29:18;;;;;;;5.63;2.05;;;;;;;;;;5076380;27;96231;-75
2022/06/02 21:31:49;;;;;;;3.15;1.90;;;;;;;;;;5076155;27;96890;-74
2022/06/02 21:34:16;;;;;;;3.20;2.10;;;;;;;;;;5073965;27;97382;-72
2022/06/02 21:36:54;;;;;;;3.97;2.38;;;;;;;;;;5074669;27;95398;-75
2022/06/02 21:39:28;;;;;;;3.30;2.20;;;;;;;;;;5078553;27;96716;-74
2022/06/02 21:41:56;;;;;;;3.50;2.10;;;;;;;;;;5074127;27;95339;-74
2022/06/02 21:44:34;;;;;;;3.30;2.10;;;;;;;;;;5074186;27;96808;-74
2022/06/02 21:47:16;;;;;;;3.28;2.17;;;;;;;;;;5075456;27;97397;-75
2022/06/02 21:49:54;;;;;;;3.50;2.17;;;;;;;;;;5074968;27;95374;-75
2022/06/02 21:52:25;;;;;;;3.50;2.20;;;;;;;;;;5074036;27;96904;-72
2022/06/02 21:55:05;;;;;;;3.30;2.22;;;;;;;;;;5074834;27;97696;-72
2022/06/02 21:57:34;;;;;;;3.03;1.88;;;;;;;;;;5075054;27;95113;-72
2022/06/02 22:00:16;;;;;;;3.75;1.95;;;;;;;;;;5075382;27;96744;-72
2022/06/02 22:02:46;;;;;;;4.63;2.25;;;;;;;;;;5076747;27;95279;-72
2022/06/02 22:05:18;;;;;;;3.40;2.10;;;;;;;;;;5074329;27;95735;-72
2022/06/02 22:07:48;;;;;;;4.53;2.47;;;;;;;;;;5075084;27;97443;-72
2022/06/02 22:10:34;;;;;;;4.60;2.17;;;;;;;;;;5074692;27;95493;-72
2022/06/02 22:13:06;;;;;;;3.42;2.17;;;;;;;;;;5074273;27;96738;-72
2022/06/02 22:15:38;;;;;;;3.22;2.10;;;;;;;;;;5073171;27;97368;-72
2022/06/02 22:18:10;;;;;;;3.27;2.20;;;;;;;;;;5074971;27;95347;-72
2022/06/02 22:20:44;;;;;;;3.60;2.40;;;;;;;;;;5074746;27;96653;-73
2022/06/02 22:23:14;;;;;;;4.78;1.92;;;;;;;;;;5062093;27;96415;-73
2022/06/02 22:25:59;;;;;;;2.85;2.00;;;;;;;;;;5054810;27;96815;-73
2022/06/02 22:28:44;;;;;;;3.38;2.05;;;;;;;;;;5066647;27;97302;-72
2022/06/02 22:31:16;;;;;;;4.25;2.55;;;;;;;;;;5074297;27;95323;-75
2022/06/02 22:33:49;;;;;;;3.33;2.08;;;;;;;;;;5074205;27;96996;-74
2022/06/02 22:36:22;;;;;;;4.00;2.20;;;;;;;;;;5074509;27;97343;-72
2022/06/02 22:39:01;;;;;;;3.63;2.33;;;;;;;;;;5074659;27;95327;-73
2022/06/02 22:41:38;;;;;;;3.85;2.20;;;;;;;;;;5073016;27;95573;-72
2022/06/02 22:44:23;;;;;;;3.15;2.08;;;;;;;;;;5072427;27;97360;-73
2022/06/02 22:46:59;;;;;;;3.58;2.10;;;;;;;;;;5078027;27;95152;-74
2022/06/02 22:49:37;;;;;;;2.97;2.10;;;;;;;;;;5074189;27;97301;-75
2022/06/02 22:52:26;;;;;;;4.70;2.45;;;;;;;;;;5054732;27;95255;-74
2022/06/02 22:55:10;;;;;;;5.20;2.35;;;;;;;;;;5073728;27;96577;-75
2022/06/02 22:57:37;;;;;;;3.35;2.05;;;;;;;;;;5059304;27;95729;-74
2022/06/02 23:00:12;;;;;;;4.55;2.30;;;;;;;;;;5073654;27;95390;-75
2022/06/02 23:02:51;;;;;;;3.55;2.20;;;;;;;;;;5073018;27;97079;-73
2022/06/02 23:05:36;;;;;;;3.60;2.17;;;;;;;;;;5063467;27;97262;-73
2022/06/02 23:08:26;;;;;;;3.67;2.13;;;;;;;;;;5060508;27;95258;-73
2022/06/02 23:11:11;;;;;;;5.60;2.40;;;;;;;;;;5046525;27;96720;-74
2022/06/02 23:13:48;;;;;;;4.18;2.40;;;;;;;;;;5073655;27;95324;-75
2022/06/02 23:16:33;;;;;;;3.55;2.10;;;;;;;;;;5071079;27;97148;-73
2022/06/02 23:19:06;;;;;;;5.95;2.60;;;;;;;;;;5073670;27;97520;-74
2022/06/02 23:21:32;;;;;;;;;;;;;;;;;;5072168;27;95277;-74
2022/06/02 23:24:13;;;;;;;4.70;2.47;;;;;;;;;;5072556;27;125313;-73
2022/06/02 23:26:48;;;;;;;3.75;2.45;;;;;;;;;;5073449;27;97420;-73
2022/06/02 23:29:15;;;;;;;3.58;2.30;;;;;;;;;;5074241;27;95328;-74
2022/06/02 23:31:50;;;;;;;3.92;2.58;;;;;;;;;;5072947;27;95776;-74
2022/06/02 23:34:25;;;;;;;4.28;2.58;;;;;;;;;;5075822;27;96209;-74
2022/06/02 23:37:10;;;;;;;4.28;2.75;;;;;;;;;;5074012;27;95988;-74
2022/06/02 23:39:39;;;;;;;4.32;2.63;;;;;;;;;;5072401;27;96431;-74
2022/06/02 23:45:04;;;;;;;4.60;2.70;;;;;;;;;;5070992;27;97617;-75
2022/06/02 23:47:30;;;;;;;;;;;;;;;;;;5073196;27;97273;-73
2022/06/02 23:50:13;;;;;;;4.18;2.67;;;;;;;;;;5072973;27;117747;-74
2022/06/02 23:52:39;;;;;;;;;;;;;;;;;;5071786;27;96841;-74
2022/06/02 23:55:05;;;;;;;3.92;2.45;;;;;;;;;;5071934;27;126713;-74
2022/06/02 23:57:35;;;;;;;4.45;2.47;;;;;;;;;;5076635;27;95299;-73
